Sibley, IA

10:13 PM CST on December 19, 2014 (GMT -0600)
IADOT Sibley (HW 60/HW 9) | Change Station
CLOSE
Current Station
Personal Weather Station
Location: Sibley, IA
Elevation: 1574 ft
Nearby Weather Stations

Elev 1574 ft 43.43 °N, 95.71 °W | Updated 49 minutes ago

Overcast
Overcast
30 °F
Feels Like 21 °F
N
11
Wind Variable Wind from South
Gusts 13.0 mph

Today
High -- | Low -- °F
--% Chance of Precip.
Yesterday
High -- | Low -- °F
Precip. -- in
7:51 AM 4:49 PM
Waning Crescent, 5% visible
Pressure 30.10 in
Visibility 7.0 miles
Clouds Overcast 800 ft
Windchill 21 °F
Dew Point 29 °F
Humidity 99%
Rainfall -999.00 in
Snow Depth Not available.
UV 0 out of 12
Pollen .10 out of 12
Air Quality Not available.
Flu Activity Not available.
METAR KSHL 200355Z AUTO 19011KT 7SM OVC008 M01/M01 A3010 RMK AO2

More Conditions Fewer Conditions

Pressure 30.10 in
Visibility 7.0 miles
Clouds Overcast 800 ft
Windchill 21 °F
Dew Point 29 °F
Humidity 99%
Rainfall -999.00 in
Snow Depth Not available.
UV 0 out of 12
Pollen .10 out of 12
Air Quality Not available.
Flu Activity Not available.
METAR KSHL 200355Z AUTO 19011KT 7SM OVC008 M01/M01 A3010 RMK AO2

More Conditions Fewer Conditions

10-Day Weather Forecast

Almanac

Astronomy

Dec. 19, 2014 Rise Set
Actual Time
Civil Twilight
Nautical Twilight
Astronomical Twilight
Moon
Length of Visible Light
Length of Day
Tomorrow will be .
, % of the Moon is Illuminated

Today's Extremes

State Highs State Lows

Community

WunderPhotos

Upload Photos

1,779,128 photos uploaded!

WunderBlogs® & News

Nearby

Air Quality

  Air Quality AQ Index Pollutant
Not available.

Snow Depth

Station Depth Elevation

Earthquake Activity

City Distance Mag. Time & Date
Minimum magnitude displayed is 2.5.

Coastal Water Temperatures

Place Temperature

Nearby Weather Stations